Time;durP1;ratioP1;P1;durP2;ratioP2;P2;SDS_P1;SDS_P2;PMS_P1;PMS_P2;Temp;Humidity;BMP_temperature;BMP_pressure;BME280_temperature;BME280_humidity;BME280_pressure;Samples;Min_cycle;Max_cycle;Signal;HPM_P1;HPM_P2
2022/02/25 00:00:32;;;;;;;6.38;3.97;;;;;;;-0.63;61.52;95161.88;5070681;28;20031;-68
2022/02/25 00:02:57;;;;;;;6.32;3.72;;;;;;;-0.67;61.72;95158.56;5069671;28;20033;-68
2022/02/25 00:05:23;;;;;;;7.88;4.35;;;;;;;-0.65;62.24;95161.06;5070635;28;20029;-68
2022/02/25 00:07:48;;;;;;;7.22;4.03;;;;;;;-0.69;61.76;95161.19;5069344;28;20029;-68
2022/02/25 00:10:13;;;;;;;8.60;5.13;;;;;;;-0.72;61.58;95152.81;5052692;28;20036;-68
2022/02/25 00:12:39;;;;;;;9.55;6.40;;;;;;;-0.72;61.17;95145.97;5052658;28;20044;-68
2022/02/25 00:15:05;;;;;;;7.65;4.30;;;;;;;-0.68;60.86;95146.69;5069295;28;20104;-68
2022/02/25 00:17:30;;;;;;;7.85;3.88;;;;;;;-0.65;60.50;95135.56;5069348;28;20048;-68
2022/02/25 00:19:56;;;;;;;7.40;4.15;;;;;;;-0.73;60.55;95126.44;5069212;28;20029;-68
2022/02/25 00:22:21;;;;;;;7.30;4.07;;;;;;;-0.65;60.28;95140.66;5070742;28;20028;-68
2022/02/25 00:24:47;;;;;;;7.97;4.63;;;;;;;-0.67;60.26;95133.03;5070493;28;20032;-68
2022/02/25 00:27:12;;;;;;;8.77;4.90;;;;;;;-0.66;60.31;95133.91;5052285;28;20430;-68
2022/02/25 00:29:37;;;;;;;7.28;4.90;;;;;;;-0.75;60.85;95127.41;5069148;28;20499;-68
2022/02/25 00:32:03;;;;;;;8.55;5.43;;;;;;;-0.80;60.86;95127.53;5070365;28;20475;-68
2022/02/25 00:34:28;;;;;;;7.63;4.57;;;;;;;-0.81;61.28;95125.84;5052616;28;20029;-68
2022/02/25 00:36:54;;;;;;;8.48;4.70;;;;;;;-0.81;61.53;95119.94;5052213;28;20044;-68
2022/02/25 00:39:19;;;;;;;9.05;4.32;;;;;;;-0.81;61.27;95117.38;5072771;28;20094;-69
2022/02/25 00:41:45;;;;;;;7.55;4.63;;;;;;;-0.80;61.21;95114.78;5074035;28;20024;-68
2022/02/25 00:44:10;;;;;;;5.93;4.28;;;;;;;-0.76;60.90;95112.97;5074499;28;20028;-68
2022/02/25 00:46:36;;;;;;;10.05;5.00;;;;;;;-0.72;61.16;95117.09;5055975;28;20033;-69
2022/02/25 00:49:01;;;;;;;8.07;4.90;;;;;;;-0.79;60.62;95115.63;5072881;28;20036;-68
2022/02/25 00:51:27;;;;;;;5.97;4.13;;;;;;;-0.76;60.54;95113.78;5056025;28;20062;-69
2022/02/25 00:53:53;;;;;;;12.88;8.05;;;;;;;-0.82;60.50;95114.00;5074214;28;20028;-68
2022/02/25 00:56:18;;;;;;;14.45;7.68;;;;;;;-0.88;60.71;95118.47;5072451;28;20488;-69
2022/02/25 00:58:44;;;;;;;17.77;10.13;;;;;;;-0.91;61.17;95115.13;5039415;28;20094;-68
2022/02/25 01:01:09;;;;;;;20.48;11.93;;;;;;;-0.91;61.61;95115.13;5073727;28;20024;-68
2022/02/25 01:03:35;;;;;;;17.13;10.18;;;;;;;-0.94;61.44;95102.50;5055643;28;20098;-68
2022/02/25 01:06:00;;;;;;;21.10;12.07;;;;;;;-0.93;61.44;95109.25;5072458;28;20082;-68
2022/02/25 01:08:26;;;;;;;22.63;11.18;;;;;;;-0.91;61.21;95106.66;5072480;28;20510;-69
2022/02/25 01:10:51;;;;;;;17.58;10.95;;;;;;;-1.02;61.35;95090.88;5073543;28;20411;-68
2022/02/25 01:13:16;;;;;;;17.25;9.80;;;;;;;-0.97;61.27;95101.78;5073728;28;20434;-68
2022/02/25 01:15:42;;;;;;;19.90;10.35;;;;;;;-1.05;61.21;95106.28;5072144;28;20032;-68
2022/02/25 01:18:07;;;;;;;20.73;10.90;;;;;;;-1.18;61.28;95106.66;5072391;28;20039;-68
2022/02/25 01:20:33;;;;;;;19.50;10.65;;;;;;;-1.22;61.31;95096.66;5073329;28;20031;-68
2022/02/25 01:22:58;;;;;;;14.88;9.68;;;;;;;-1.42;61.58;95092.16;5072207;28;20515;-69
2022/02/25 01:25:24;;;;;;;18.67;10.77;;;;;;;-1.58;62.33;95087.56;5073313;28;20032;-68
2022/02/25 01:27:49;;;;;;;19.75;10.10;;;;;;;-1.54;62.97;95098.47;5055326;28;20036;-68
2022/02/25 01:30:14;;;;;;;22.25;11.73;;;;;;;-1.55;62.63;95096.81;5072021;28;20086;-68
2022/02/25 01:32:40;;;;;;;17.23;10.18;;;;;;;-1.58;62.76;95089.28;5072202;28;20104;-68
2022/02/25 01:35:06;;;;;;;15.07;9.35;;;;;;;-1.66;62.84;95084.41;5055187;28;20035;-68
2022/02/25 01:37:32;;;;;;;16.70;9.05;;;;;;;-1.72;62.89;95091.41;5055124;28;20140;-68
2022/02/25 01:39:57;;;;;;;16.00;10.20;;;;;;;-1.83;63.17;95087.47;5071745;28;20036;-68
2022/02/25 01:42:22;;;;;;;17.20;9.82;;;;;;;-1.83;63.39;95086.66;5072093;28;20024;-68
2022/02/25 01:44:48;;;;;;;15.00;9.15;;;;;;;-1.90;63.73;95074.97;5072910;28;20445;-68
2022/02/25 01:47:14;;;;;;;15.18;8.95;;;;;;;-1.96;63.86;95063.25;5071628;28;20501;-69
2022/02/25 01:49:40;;;;;;;13.60;8.05;;;;;;;-1.96;64.21;95073.44;5072814;28;20027;-69
2022/02/25 01:52:07;;;;;;;12.20;7.50;;;;;;;-2.05;64.46;95061.00;5072799;28;20077;-68
2022/02/25 01:54:32;;;;;;;14.48;7.68;;;;;;;-2.04;64.62;95070.28;5055239;28;20048;-69
2022/02/25 01:56:58;;;;;;;15.15;8.88;;;;;;;-2.02;64.91;95073.63;5054833;28;20383;-68
2022/02/25 01:59:24;;;;;;;14.32;9.05;;;;;;;-2.07;65.59;95068.66;5038491;28;20060;-68
2022/02/25 02:01:50;;;;;;;16.40;8.55;;;;;;;-2.07;65.60;95063.56;5072908;28;20487;-68
2022/02/25 02:04:15;;;;;;;12.38;7.63;;;;;;;-2.02;65.43;95061.72;5073023;28;20044;-68
2022/02/25 02:06:41;;;;;;;13.55;9.00;;;;;;;-2.08;66.00;95066.19;5054698;28;20020;-68
2022/02/25 02:09:06;;;;;;;15.90;9.27;;;;;;;-2.09;65.85;95064.50;5072429;28;20041;-69
2022/02/25 02:11:37;;;;;;;13.88;8.32;;;;;;;-2.08;66.36;95058.53;5071257;28;20048;-68
2022/02/25 02:14:05;;;;;;;14.00;8.82;;;;;;;-2.21;66.96;95054.69;5071469;28;20029;-69
2022/02/25 02:16:31;;;;;;;17.08;9.40;;;;;;;-2.22;66.66;95058.13;5054774;28;20024;-69
2022/02/25 02:18:56;;;;;;;13.48;8.63;;;;;;;-2.31;67.14;95047.31;5071239;28;20025;-68
2022/02/25 02:21:28;;;;;;;12.52;8.38;;;;;;;-2.25;67.11;95054.78;5037677;28;20032;-69
2022/02/25 02:23:53;;;;;;;;;;;;;;;-2.26;66.93;95058.22;5055526;28;20047;-69
2022/02/25 02:26:20;;;;;;;11.65;7.20;;;;;;;-2.29;67.15;95048.09;5072142;28;19912;-69
2022/02/25 02:28:46;;;;;;;12.10;7.93;;;;;;;-2.29;66.92;95053.19;5054431;28;20033;-68
2022/02/25 02:31:11;;;;;;;12.85;6.95;;;;;;;-2.28;66.54;95047.22;5054187;28;20040;-69
2022/02/25 02:33:37;;;;;;;13.00;7.70;;;;;;;-2.26;66.34;95052.25;5070888;28;20037;-69
2022/02/25 02:36:03;;;;;;;17.10;9.23;;;;;;;-2.33;66.70;95049.06;5070570;28;20062;-69
2022/02/25 02:38:29;;;;;;;13.80;7.65;;;;;;;-2.34;66.78;95049.97;5072241;28;20471;-68
2022/02/25 02:40:54;;;;;;;12.00;8.05;;;;;;;-2.26;66.78;95050.56;5053842;28;20034;-69
2022/02/25 02:43:20;;;;;;;15.55;8.93;;;;;;;-2.28;66.83;95043.88;5070619;28;20032;-69
2022/02/25 02:45:45;;;;;;;12.43;8.23;;;;;;;-2.28;66.71;95046.41;5070463;28;20020;-68
2022/02/25 02:48:10;;;;;;;14.23;9.68;;;;;;;-2.40;66.39;95032.31;5071834;28;20042;-69
2022/02/25 02:50:36;;;;;;;16.33;9.70;;;;;;;-2.44;66.36;95035.81;5053751;28;20020;-69
2022/02/25 02:53:01;;;;;;;12.80;8.73;;;;;;;-2.49;66.49;95040.22;5053763;28;20048;-69
2022/02/25 02:55:27;;;;;;;15.85;9.77;;;;;;;-2.56;67.21;95034.47;5070301;28;20517;-68
2022/02/25 02:57:52;;;;;;;15.32;9.40;;;;;;;-2.53;67.38;95036.09;5053560;28;20036;-69
2022/02/25 03:00:18;;;;;;;13.23;8.57;;;;;;;-2.58;67.25;95038.75;5053101;28;20166;-69
2022/02/25 03:02:43;;;;;;;14.23;8.23;;;;;;;-2.52;67.82;95045.38;5053604;28;20037;-69
2022/02/25 03:05:09;;;;;;;10.32;6.82;;;;;;;-2.52;67.03;95037.75;5070146;28;20028;-69
2022/02/25 03:07:34;;;;;;;12.63;6.97;;;;;;;-2.60;66.83;95037.97;5071257;28;20050;-69
2022/02/25 03:10:00;;;;;;;11.02;6.45;;;;;;;-2.67;66.80;95030.53;5070031;28;20062;-69
2022/02/25 03:12:25;;;;;;;10.40;5.57;;;;;;;-2.59;66.90;95037.09;5070122;28;20020;-69
2022/02/25 03:14:51;;;;;;;10.00;5.80;;;;;;;-2.62;67.39;95028.72;5053324;28;20037;-68
2022/02/25 03:17:16;;;;;;;8.98;6.20;;;;;;;-2.73;67.20;95037.50;5053245;28;20017;-69
2022/02/25 03:19:42;;;;;;;10.15;6.43;;;;;;;-2.79;67.25;95037.63;5071163;28;20036;-68
2022/02/25 03:22:08;;;;;;;7.22;5.20;;;;;;;-2.76;67.74;95032.50;5053244;28;20028;-69
2022/02/25 03:24:33;;;;;;;9.02;5.35;;;;;;;-2.79;68.11;95024.91;5070094;28;20059;-69
2022/02/25 03:26:59;;;;;;;6.47;4.75;;;;;;;-2.75;68.58;95031.59;5069820;28;20105;-68
2022/02/25 03:29:24;;;;;;;7.18;5.13;;;;;;;-2.67;68.73;95035.63;5071497;28;20044;-68
2022/02/25 03:31:50;;;;;;;8.73;4.75;;;;;;;-2.72;68.25;95028.16;5070908;28;20033;-69
2022/02/25 03:34:15;;;;;;;6.93;4.43;;;;;;;-2.67;67.85;95030.53;5069991;28;20120;-69
2022/02/25 03:36:41;;;;;;;9.02;4.70;;;;;;;-2.73;67.52;95042.56;5070753;28;20044;-68
2022/02/25 03:39:06;;;;;;;7.15;4.20;;;;;;;-2.64;67.56;95038.13;5069953;28;20040;-69
2022/02/25 03:41:32;;;;;;;7.80;4.53;;;;;;;-2.68;67.08;95039.06;5070890;28;20047;-69
2022/02/25 03:43:57;;;;;;;13.40;6.47;;;;;;;-2.66;66.97;95042.41;5069826;28;20573;-69
2022/02/25 03:46:23;;;;;;;19.23;9.15;;;;;;;-2.76;67.34;95040.13;5071132;28;20501;-69
2022/02/25 03:48:50;;;;;;;45.63;19.80;;;;;;;-2.65;67.46;95051.69;5069672;28;20515;-69
2022/02/25 03:51:16;;;;;;;30.90;15.35;;;;;;;-2.65;67.50;95046.59;5070693;28;20045;-69
2022/02/25 03:53:41;;;;;;;33.33;15.02;;;;;;;-2.67;67.33;95056.84;5069570;28;20070;-69
2022/02/25 03:56:07;;;;;;;33.00;13.93;;;;;;;-2.79;67.53;95031.72;5069542;28;20025;-68
2022/02/25 03:58:32;;;;;;;31.88;12.77;;;;;;;-2.66;67.60;95055.13;5052960;28;20356;-68
2022/02/25 04:00:58;;;;;;;20.58;8.80;;;;;;;-2.65;67.52;95054.22;5069312;28;20033;-69
2022/02/25 04:03:23;;;;;;;13.80;7.78;;;;;;;-2.70;67.66;95052.66;5070909;28;20402;-69
2022/02/25 04:05:48;;;;;;;13.75;7.00;;;;;;;-2.74;67.95;95055.31;5070606;28;20031;-68
2022/02/25 04:08:14;;;;;;;8.75;5.88;;;;;;;-2.67;67.88;95056.84;5052793;28;20029;-69
2022/02/25 04:10:39;;;;;;;10.38;6.18;;;;;;;-2.75;67.43;95049.41;5070593;28;20024;-69
2022/02/25 04:13:05;;;;;;;10.35;6.43;;;;;;;-2.74;67.22;95058.69;5072361;28;20048;-69
2022/02/25 04:15:31;;;;;;;7.93;5.15;;;;;;;-2.67;67.40;95061.06;5074925;28;20024;-68
2022/02/25 04:17:57;;;;;;;8.05;5.07;;;;;;;-2.62;66.92;95070.25;5073276;28;20032;-69
2022/02/25 04:20:22;;;;;;;7.25;5.43;;;;;;;-2.61;66.58;95071.09;5040133;28;20525;-68
2022/02/25 04:22:48;;;;;;;8.23;5.38;;;;;;;-2.74;67.00;95078.22;5073211;28;20040;-68
2022/02/25 04:25:14;;;;;;;9.20;5.25;;;;;;;-2.82;66.95;95069.94;5074437;28;20410;-69
2022/02/25 04:27:39;;;;;;;6.93;4.63;;;;;;;-2.88;67.37;95072.66;5073188;28;20043;-68
2022/02/25 04:30:06;;;;;;;6.50;4.40;;;;;;;-2.86;67.38;95070.91;5074332;28;20024;-68
2022/02/25 04:32:31;;;;;;;9.70;7.70;;;;;;;-2.93;67.43;95062.59;5073164;28;20093;-68
2022/02/25 04:34:56;;;;;;;10.48;5.82;;;;;;;-2.88;67.72;95060.78;5056282;28;20032;-68
2022/02/25 04:37:22;;;;;;;8.48;5.00;;;;;;;-2.90;66.91;95054.88;5072807;28;20136;-68
2022/02/25 04:39:47;;;;;;;9.57;5.00;;;;;;;-2.95;67.02;95056.75;5056363;28;20032;-69
2022/02/25 04:42:13;;;;;;;7.30;5.28;;;;;;;-2.97;67.38;95054.22;5056237;28;20024;-68
2022/02/25 04:44:38;;;;;;;8.45;5.22;;;;;;;-3.04;67.54;95062.88;5072948;28;20032;-69
2022/02/25 04:47:03;;;;;;;7.85;5.53;;;;;;;-3.08;68.00;95050.31;5056156;28;20029;-68
2022/02/25 04:49:29;;;;;;;8.90;5.28;;;;;;;-3.15;67.47;95042.84;5072731;28;20128;-68
2022/02/25 04:51:54;;;;;;;7.90;5.57;;;;;;;-3.18;68.02;95047.97;5056032;28;20112;-69
2022/02/25 04:54:20;;;;;;;8.27;4.88;;;;;;;-3.05;68.67;95052.78;5039567;28;20469;-68
2022/02/25 04:56:45;;;;;;;8.43;5.90;;;;;;;-3.12;68.33;95052.09;5072588;28;20020;-68
2022/02/25 04:59:11;;;;;;;7.30;4.63;;;;;;;-3.19;68.28;95055.66;5072710;28;20040;-69
2022/02/25 05:01:36;;;;;;;9.18;5.30;;;;;;;-3.30;68.30;95050.84;5039178;28;20514;-69
2022/02/25 05:04:03;;;;;;;8.93;4.93;;;;;;;-3.21;68.54;95045.53;5039325;28;20491;-69
2022/02/25 05:06:28;;;;;;;11.55;5.90;;;;;;;-3.27;68.23;95032.97;5072414;28;20037;-69
2022/02/25 05:08:54;;;;;;;7.38;5.50;;;;;;;-3.34;68.14;95028.09;5072558;28;20089;-68
2022/02/25 05:11:19;;;;;;;11.73;5.50;;;;;;;-3.35;67.72;95032.34;5073593;28;20090;-69
2022/02/25 05:13:45;;;;;;;7.95;5.75;;;;;;;-3.34;68.70;95026.41;5072545;28;20460;-69
2022/02/25 05:21:38;;;;;;;8.63;4.75;;;;;;;-3.24;69.19;95029.53;5073601;28;20517;-69
2022/02/25 05:24:04;;;;;;;8.18;5.30;;;;;;;-3.27;68.67;95030.44;5071812;28;20028;-68
2022/02/25 05:26:29;;;;;;;11.60;6.63;;;;;;;-3.34;69.07;95018.78;5072031;28;20060;-68
2022/02/25 05:28:55;;;;;;;13.18;7.10;;;;;;;-3.20;69.18;95038.75;5055446;28;20032;-69
2022/02/25 05:31:20;;;;;;;12.02;7.30;;;;;;;-3.20;69.23;95037.03;5055356;28;20123;-69
2022/02/25 05:33:47;;;;;;;10.20;6.38;;;;;;;-3.08;69.57;95045.22;5073534;28;20025;-68
2022/02/25 05:36:14;;;;;;;7.07;4.88;;;;;;;-3.03;69.70;95049.31;5071850;28;20025;-69
2022/02/25 05:38:39;;;;;;;4.80;3.40;;;;;;;-2.95;69.63;95055.03;5071982;28;20032;-68
2022/02/25 05:41:05;;;;;;;4.78;2.95;;;;;;;-2.97;69.55;95053.41;5071943;28;20032;-68
2022/02/25 05:43:30;;;;;;;8.27;4.07;;;;;;;-2.84;69.47;95053.88;5073350;28;20041;-68
2022/02/25 05:45:56;;;;;;;7.50;4.25;;;;;;;-2.95;69.11;95051.66;5071714;28;20410;-69
2022/02/25 05:48:21;;;;;;;5.32;3.28;;;;;;;-2.84;68.32;95057.28;5071797;28;20044;-69
2022/02/25 05:50:47;;;;;;;4.40;2.90;;;;;;;-2.67;67.20;95050.88;5071526;28;20028;-68
2022/02/25 05:53:12;;;;;;;6.57;3.42;;;;;;;-2.57;66.76;95049.75;5071727;28;20482;-69
2022/02/25 05:55:37;;;;;;;9.95;6.18;;;;;;;-2.56;67.27;95048.91;5071433;28;20025;-69
2022/02/25 05:58:03;;;;;;;6.22;4.00;;;;;;;-2.48;66.92;95046.94;5071547;28;20425;-68
2022/02/25 06:00:28;;;;;;;4.20;3.10;;;;;;;-2.39;66.07;95051.81;5071435;28;20495;-69
2022/02/25 06:02:54;;;;;;;5.00;2.95;;;;;;;-2.31;65.71;95054.13;5071470;28;20028;-69
2022/02/25 06:05:19;;;;;;;7.18;4.75;;;;;;;-2.22;65.47;95058.13;5071421;28;20017;-69
2022/02/25 06:07:45;;;;;;;13.93;6.30;;;;;;;-2.18;65.62;95055.41;5071354;28;20047;-68
2022/02/25 06:10:11;;;;;;;17.83;9.77;;;;;;;-2.11;64.81;95051.00;5054735;28;20031;-69
2022/02/25 06:12:37;;;;;;;44.05;23.27;;;;;;;-2.11;66.25;95045.91;5054576;28;20119;-69
2022/02/25 06:15:04;;;;;;;54.22;25.73;;;;;;;-2.12;66.82;95049.31;5071200;28;20557;-69
2022/02/25 06:17:29;;;;;;;85.82;43.92;;;;;;;-2.16;68.14;95053.66;5054678;28;20034;-69
2022/02/25 06:19:55;;;;;;;99.90;49.08;;;;;;;-2.04;68.14;95043.09;5054329;28;20028;-69
2022/02/25 06:22:20;;;;;;;72.13;37.30;;;;;;;-2.00;68.16;95048.13;5070927;28;20048;-69
2022/02/25 06:24:46;;;;;;;75.13;32.55;;;;;;;-1.84;67.41;95054.41;5054354;28;20086;-69
2022/02/25 06:27:11;;;;;;;64.07;30.55;;;;;;;-1.82;67.40;95045.84;5072026;28;20037;-69
2022/02/25 06:29:37;;;;;;;51.75;27.13;;;;;;;-1.69;67.58;95050.56;5070887;28;20033;-69
2022/02/25 06:32:02;;;;;;;34.10;20.60;;;;;;;-1.51;67.23;95052.50;5070823;28;20043;-69
2022/02/25 06:34:28;;;;;;;39.03;21.85;;;;;;;-1.48;67.48;95054.97;5070867;28;20079;-69
2022/02/25 06:36:53;;;;;;;37.60;22.23;;;;;;;-1.46;67.35;95050.66;5069522;28;20084;-69
2022/02/25 06:39:18;;;;;;;42.58;22.10;;;;;;;-1.30;67.17;95053.56;5052965;28;20430;-69
2022/02/25 06:41:44;;;;;;;36.38;22.40;;;;;;;-1.04;67.06;95051.84;5069862;28;20479;-69
2022/02/25 06:44:09;;;;;;;40.20;24.45;;;;;;;-0.44;66.21;95047.22;5071449;28;20029;-69
2022/02/25 06:46:35;;;;;;;36.35;22.98;;;;;;;0.15;64.24;95044.16;5070899;28;20036;-69
2022/02/25 06:49:01;;;;;;;31.15;19.90;;;;;;;0.74;62.69;95045.22;5071294;28;20466;-69
2022/02/25 06:51:27;;;;;;;29.30;17.65;;;;;;;1.19;60.29;95047.59;5053031;28;20025;-69
2022/02/25 06:53:53;;;;;;;30.85;18.98;;;;;;;1.74;59.56;95057.19;5069534;28;20040;-69
2022/02/25 06:56:19;;;;;;;24.90;16.17;;;;;;;2.18;56.37;95050.03;5069581;28;20032;-69
2022/02/25 06:58:45;;;;;;;21.00;13.45;;;;;;;2.64;54.29;95042.72;5069678;28;20335;-69
2022/02/25 07:01:10;;;;;;;23.85;12.50;;;;;;;2.83;53.66;95042.66;5070691;28;20490;-69
2022/02/25 07:03:35;;;;;;;24.58;14.38;;;;;;;2.92;54.68;95043.94;5070946;28;20601;-69
2022/02/25 07:06:02;;;;;;;48.08;29.30;;;;;;;3.09;54.06;95043.97;5052741;28;20036;-69
2022/02/25 07:08:27;;;;;;;27.63;17.00;;;;;;;3.28;52.55;95048.16;5052990;28;20056;-69
2022/02/25 07:10:53;;;;;;;28.52;16.63;;;;;;;3.25;52.84;95038.88;5052587;28;20505;-69
2022/02/25 07:13:19;;;;;;;30.17;18.85;;;;;;;3.11;53.24;95049.84;5069172;28;20029;-69
2022/02/25 07:15:45;;;;;;;34.45;19.83;;;;;;;3.13;53.49;95044.63;5069233;28;20103;-67
2022/02/25 07:18:10;;;;;;;31.10;19.73;;;;;;;3.22;52.88;95056.19;5035991;28;20055;-67
2022/02/25 07:20:36;;;;;;;38.35;21.73;;;;;;;3.49;53.26;95052.22;5070397;28;20028;-67
2022/02/25 07:23:03;;;;;;;30.55;19.73;;;;;;;3.97;51.54;95053.13;5035937;28;20051;-69
2022/02/25 07:25:28;;;;;;;50.42;24.27;;;;;;;3.96;51.43;95056.63;5052491;28;20158;-70
2022/02/25 07:27:53;;;;;;;42.60;22.33;;;;;;;3.77;52.40;95061.91;5069033;28;20082;-69
2022/02/25 07:30:19;;;;;;;37.25;20.75;;;;;;;3.72;51.71;95063.03;5069030;28;20031;-69
2022/02/25 07:32:44;;;;;;;35.22;20.73;;;;;;;3.43;52.22;95065.38;5052342;28;20041;-69
2022/02/25 07:35:13;;;;;;;33.67;19.40;;;;;;;3.46;52.77;95067.78;5068891;28;20035;-69
2022/02/25 07:37:39;;;;;;;34.83;19.83;;;;;;;3.82;51.53;95061.66;5007654;28;1299328;-69
2022/02/25 07:40:05;;;;;;;36.53;19.35;;;;;;;4.01;51.26;95057.22;5069687;28;20456;-69
2022/02/25 07:42:31;;;;;;;32.97;20.60;;;;;;;3.86;51.85;95055.44;5036696;28;20036;-69
2022/02/25 07:44:56;;;;;;;44.15;21.98;;;;;;;3.98;52.08;95061.66;5069634;28;20086;-69
2022/02/25 07:47:23;;;;;;;38.08;21.73;;;;;;;4.10;51.30;95049.94;5069526;28;20032;-69
2022/02/25 07:49:50;;;;;;;48.20;26.40;;;;;;;4.37;50.89;95056.13;5053072;28;20036;-69
2022/02/25 07:52:15;;;;;;;40.63;22.17;;;;;;;4.37;50.78;95043.25;5052935;28;20020;-67
2022/02/25 07:54:41;;;;;;;35.70;19.27;;;;;;;4.51;49.95;95042.50;5036284;28;20085;-67
2022/02/25 07:57:06;;;;;;;42.13;23.10;;;;;;;4.74;49.93;95036.09;5052622;28;20077;-69
2022/02/25 07:59:32;;;;;;;42.20;24.92;;;;;;;5.21;49.25;95048.00;5071312;28;20032;-69
2022/02/25 08:01:58;;;;;;;38.92;26.63;;;;;;;5.49;48.06;95052.38;5052756;28;20081;-69
2022/02/25 08:04:24;;;;;;;38.20;22.88;;;;;;;5.55;47.22;95053.75;5053151;28;20036;-67
2022/02/25 08:06:52;;;;;;;37.90;23.42;;;;;;;5.64;46.71;95042.06;5069412;28;20037;-67
2022/02/25 08:09:19;;;;;;;32.58;19.67;;;;;;;5.70;45.65;95044.25;5069696;28;20048;-67
2022/02/25 08:11:44;;;;;;;37.13;20.80;;;;;;;5.84;45.47;95039.09;5069316;28;20124;-67
2022/02/25 08:14:10;;;;;;;32.70;18.45;;;;;;;5.85;45.55;95037.34;5052917;28;20028;-67
2022/02/25 08:16:35;;;;;;;35.38;19.45;;;;;;;5.92;45.65;95034.31;5069323;28;20047;-67
2022/02/25 08:19:00;;;;;;;34.92;19.80;;;;;;;6.41;43.92;95022.75;5070429;28;20526;-67
2022/02/25 08:21:26;;;;;;;41.00;20.23;;;;;;;6.91;42.55;95021.28;5070479;28;20032;-67
2022/02/25 08:23:51;;;;;;;31.23;18.80;;;;;;;7.07;42.48;95014.16;5070927;28;20032;-67
2022/02/25 08:26:17;;;;;;;32.90;20.23;;;;;;;6.99;43.36;95028.50;5069206;28;20516;-67
2022/02/25 08:28:42;;;;;;;61.65;35.38;;;;;;;6.37;43.97;95029.00;5069324;28;20465;-69
2022/02/25 08:31:11;;;;;;;27.60;17.65;;;;;;;6.13;44.72;95019.31;5069131;28;20521;-69
2022/02/25 08:33:40;;;;;;;35.63;18.67;;;;;;;6.03;45.07;95015.63;5070343;28;20028;-69
2022/02/25 08:36:06;;;;;;;25.02;15.13;;;;;;;5.91;44.11;95012.03;5052609;28;20501;-70
2022/02/25 08:38:32;;;;;;;23.80;14.57;;;;;;;5.76;44.55;95024.09;5069188;28;20049;-69
2022/02/25 08:40:57;;;;;;;22.35;12.98;;;;;;;5.66;44.13;95020.44;5052253;28;20028;-71
2022/02/25 08:43:24;;;;;;;26.42;15.23;;;;;;;5.55;44.68;95015.91;5069228;28;20029;-69
2022/02/25 08:45:49;;;;;;;24.70;12.65;;;;;;;5.70;43.76;95014.16;5069101;28;20056;-69
2022/02/25 08:48:15;;;;;;;26.63;14.35;;;;;;;5.82;43.63;95008.28;5069149;28;20383;-69
2022/02/25 08:50:40;;;;;;;23.40;12.43;;;;;;;6.02;43.17;95008.84;5070192;28;20498;-69
2022/02/25 08:53:06;;;;;;;18.85;10.30;;;;;;;5.92;42.17;95018.03;5069143;28;20403;-69
2022/02/25 08:55:32;;;;;;;18.85;10.40;;;;;;;5.78;42.66;95001.63;5068939;28;20033;-68
2022/02/25 08:57:57;;;;;;;23.30;13.98;;;;;;;5.77;43.35;95007.72;5068951;28;20107;-70
2022/02/25 09:00:23;;;;;;;22.05;12.82;;;;;;;5.81;43.54;94991.13;5072307;28;20033;-69
2022/02/25 09:02:49;;;;;;;22.70;11.23;;;;;;;5.89;42.86;94984.69;5072575;28;20036;-68
2022/02/25 09:05:14;;;;;;;24.85;12.27;;;;;;;6.01;41.89;94978.78;5072521;28;20081;-68
2022/02/25 09:07:40;;;;;;;26.55;11.73;;;;;;;5.95;41.87;94967.09;5055840;28;20082;-68
2022/02/25 09:10:06;;;;;;;23.75;11.73;;;;;;;5.83;43.81;94983.31;5072432;28;20106;-68
2022/02/25 09:12:32;;;;;;;20.80;11.25;;;;;;;5.77;44.86;94975.97;5072440;28;20024;-69
2022/02/25 09:14:58;;;;;;;18.80;9.95;;;;;;;5.90;45.09;94978.59;5073539;28;20033;-69
2022/02/25 09:17:25;;;;;;;18.13;10.02;;;;;;;6.00;44.23;94959.91;5055506;28;20533;-69
2022/02/25 09:19:51;;;;;;;19.73;9.48;;;;;;;6.01;45.06;94956.41;5072235;28;20506;-69
2022/02/25 09:22:16;;;;;;;16.98;8.93;;;;;;;6.05;45.08;94951.91;5055617;28;20030;-69
2022/02/25 09:24:42;;;;;;;15.82;9.27;;;;;;;6.02;45.13;94957.25;5073505;28;20287;-66
2022/02/25 09:27:08;;;;;;;17.30;10.18;;;;;;;6.11;44.70;94956.66;5072112;28;20546;-69
2022/02/25 09:29:33;;;;;;;17.08;9.45;;;;;;;6.19;44.84;94944.13;5072299;28;20028;-67
2022/02/25 09:31:59;;;;;;;15.85;8.77;;;;;;;6.23;43.65;94940.41;5073176;28;20410;-68
2022/02/25 09:34:24;;;;;;;15.93;8.15;;;;;;;6.24;44.19;94942.06;5055579;28;20072;-67
2022/02/25 09:36:50;;;;;;;12.27;7.03;;;;;;;6.35;43.27;94943.13;5055057;28;20541;-68
2022/02/25 09:39:15;;;;;;;16.05;7.88;;;;;;;6.41;42.74;94941.00;5073539;28;20037;-67
2022/02/25 09:41:41;;;;;;;13.80;7.95;;;;;;;6.43;42.50;94940.88;5055165;28;20039;-67
2022/02/25 09:44:06;;;;;;;12.85;6.88;;;;;;;6.50;42.27;94937.00;5072106;28;20060;-70
2022/02/25 09:46:32;;;;;;;12.75;7.60;;;;;;;6.64;42.03;94928.34;5071833;28;20032;-70
2022/02/25 09:48:58;;;;;;;13.30;6.50;;;;;;;6.72;41.77;94924.34;5055257;28;20032;-70
2022/02/25 09:51:23;;;;;;;17.92;7.88;;;;;;;6.78;41.05;94922.28;5055126;28;20019;-67
2022/02/25 09:53:49;;;;;;;17.92;7.72;;;;;;;6.81;41.60;94909.97;5071826;28;20032;-67
2022/02/25 09:56:15;;;;;;;10.20;5.43;;;;;;;6.72;39.42;94906.25;5054944;28;20105;-67
2022/02/25 09:58:40;;;;;;;8.15;4.85;;;;;;;6.71;39.90;94908.94;5071585;28;20415;-70
2022/02/25 10:01:05;;;;;;;14.13;6.93;;;;;;;6.52;39.83;94886.09;5038113;28;20032;-70
2022/02/25 10:03:33;;;;;;;13.48;7.05;;;;;;;6.78;39.79;94897.28;5071461;28;20032;-70
2022/02/25 10:06:06;;;;;;;14.40;6.07;;;;;;;6.81;39.92;94906.59;5071393;28;20025;-67
2022/02/25 10:08:32;;;;;;;24.42;9.00;;;;;;;6.93;39.92;94890.25;5071491;28;20243;-70
2022/02/25 10:10:59;;;;;;;18.85;8.40;;;;;;;6.97;39.67;94891.72;5070077;28;20060;-70
2022/02/25 10:13:25;;;;;;;12.70;5.80;;;;;;;7.01;39.24;94893.16;5054978;28;20036;-70
2022/02/25 10:15:54;;;;;;;9.43;5.07;;;;;;;7.15;38.88;94890.44;5071110;28;20059;-70
2022/02/25 10:18:24;;;;;;;10.27;5.68;;;;;;;7.24;39.02;94885.59;5071208;28;20075;-70
2022/02/25 10:20:50;;;;;;;8.32;4.70;;;;;;;7.31;38.63;94881.66;5071184;28;20021;-68
2022/02/25 10:23:26;;;;;;;12.38;5.05;;;;;;;7.29;37.47;94884.34;5054556;28;20043;-68
2022/02/25 10:25:53;;;;;;;18.65;7.30;;;;;;;7.24;37.51;94870.09;5071042;28;20052;-69
2022/02/25 10:28:30;;;;;;;10.23;4.28;;;;;;;7.33;35.94;94872.88;5054513;28;20043;-68
2022/02/25 10:31:23;;;;;;;6.07;3.72;;;;;;;7.42;34.96;94876.59;5070899;28;20460;-68
2022/02/25 10:34:09;;;;;;;6.38;4.18;;;;;;;7.41;36.11;94867.19;5070691;28;20090;-68
2022/02/25 10:36:49;;;;;;;7.18;3.78;;;;;;;7.39;35.45;94864.69;5070759;28;20052;-68
2022/02/25 10:39:19;;;;;;;10.13;5.40;;;;;;;7.55;36.46;94864.47;5070934;28;20170;-68
2022/02/25 10:42:03;;;;;;;8.65;5.20;;;;;;;7.65;36.66;94864.63;5072167;28;20078;-69
2022/02/25 10:44:53;;;;;;;7.80;4.60;;;;;;;7.73;35.76;94857.16;5072356;28;20036;-68
2022/02/25 10:47:21;;;;;;;11.85;4.55;;;;;;;7.80;35.00;94857.53;5054747;28;20029;-68
2022/02/25 10:49:48;;;;;;;7.00;3.97;;;;;;;7.66;34.88;94861.13;5070436;28;20107;-69
2022/02/25 10:52:28;;;;;;;8.60;3.92;;;;;;;7.50;35.16;94838.09;5070485;28;20044;-69
2022/02/25 10:54:54;;;;;;;7.25;3.97;;;;;;;7.77;35.14;94852.59;5054368;28;20032;-68
2022/02/25 10:57:19;;;;;;;9.80;5.68;;;;;;;7.87;34.52;94851.00;5053808;28;20115;-68
2022/02/25 10:59:46;;;;;;;9.60;4.45;;;;;;;7.93;34.46;94837.63;5070336;28;20024;-69
2022/02/25 11:02:34;;;;;;;9.68;5.18;;;;;;;7.99;33.53;94849.28;5070135;28;20036;-69
2022/02/25 11:05:24;;;;;;;17.08;8.52;;;;;;;8.06;33.70;94843.56;5070226;28;20056;-68
2022/02/25 11:07:54;;;;;;;11.45;6.43;;;;;;;8.21;33.98;94838.22;5065028;28;20102;-69
2022/02/25 11:10:21;;;;;;;12.35;5.63;;;;;;;8.25;33.66;94826.72;5070111;28;20036;-68
2022/02/25 11:12:47;;;;;;;14.43;6.97;;;;;;;8.31;33.79;94833.19;5036878;28;20097;-69
2022/02/25 11:15:15;;;;;;;13.85;6.55;;;;;;;8.37;33.92;94825.81;5070024;28;20085;-68
2022/02/25 11:17:41;;;;;;;15.57;7.50;;;;;;;8.42;33.65;94818.56;5069798;28;20081;-69
2022/02/25 11:20:08;;;;;;;14.40;6.25;;;;;;;8.49;33.38;94817.16;5053414;28;20089;-68
2022/02/25 11:22:36;;;;;;;13.02;5.65;;;;;;;8.55;33.25;94809.88;5069543;28;20035;-69
2022/02/25 11:25:01;;;;;;;12.60;6.35;;;;;;;8.56;31.69;94801.19;5071123;28;20075;-68
2022/02/25 11:27:27;;;;;;;10.57;6.05;;;;;;;8.59;32.21;94796.59;5053307;28;20483;-68
2022/02/25 11:30:07;;;;;;;12.27;5.72;;;;;;;8.58;31.17;94799.28;5069827;28;20036;-68